Time;durP1;ratioP1;P1;durP2;ratioP2;P2;SDS_P1;SDS_P2;PMS_P1;PMS_P2;Temp;Humidity;BMP_temperature;BMP_pressure;BME280_temperature;BME280_humidity;BME280_pressure;Samples;Min_cycle;Max_cycle;Signal;HPM_P1;HPM_P2
2022/03/29 00:00:39;;;;;;;28.23;14.18;;;;;;;8.55;72.17;101616.09;5103900;28;20028;-57
2022/03/29 00:03:05;;;;;;;27.58;14.60;;;;;;;8.57;72.35;101622.06;5112375;28;20417;-57
2022/03/29 00:05:31;;;;;;;27.73;14.35;;;;;;;8.59;72.19;101612.22;5106139;28;20020;-58
2022/03/29 00:07:56;;;;;;;29.60;14.98;;;;;;;8.56;72.07;101613.31;5097286;28;20500;-58
2022/03/29 00:10:22;;;;;;;29.05;14.65;;;;;;;8.53;72.42;101607.47;5111205;28;20039;-57
2022/03/29 00:12:50;;;;;;;25.15;14.77;;;;;;;8.48;72.79;101608.66;5110658;28;20605;-57
2022/03/29 00:15:16;;;;;;;28.48;14.68;;;;;;;8.50;72.54;101607.66;5103089;28;20059;-57
2022/03/29 00:17:41;;;;;;;26.58;15.10;;;;;;;8.40;72.88;101608.47;5106966;28;20500;-57
2022/03/29 00:20:08;;;;;;;27.55;15.10;;;;;;;8.42;72.59;101603.88;5099918;28;20038;-57
2022/03/29 00:22:34;;;;;;;28.75;15.25;;;;;;;8.44;72.86;101609.84;5103806;28;20055;-57
2022/03/29 00:24:59;;;;;;;25.88;15.27;;;;;;;8.38;73.22;101605.09;5113600;28;20055;-57
2022/03/29 00:27:24;;;;;;;27.05;16.30;;;;;;;8.29;73.49;101603.22;5111956;28;20024;-57
2022/03/29 00:29:49;;;;;;;27.25;16.00;;;;;;;8.29;73.85;101600.59;5103802;28;20036;-57
2022/03/29 00:32:15;;;;;;;28.17;15.73;;;;;;;8.29;73.69;101595.28;5105220;28;20092;-57
2022/03/29 00:34:42;;;;;;;29.17;16.20;;;;;;;8.30;73.58;101589.03;5110788;28;20034;-57
2022/03/29 00:37:08;;;;;;;27.48;15.35;;;;;;;8.27;73.94;101586.63;5113760;28;20032;-57
2022/03/29 00:39:34;;;;;;;30.38;16.50;;;;;;;8.23;74.05;101582.59;5104231;28;20085;-57
2022/03/29 00:42:02;;;;;;;30.92;16.92;;;;;;;8.17;74.26;101582.13;5096175;28;20024;-57
2022/03/29 00:44:33;;;;;;;29.92;16.88;;;;;;;8.13;74.48;101578.06;5111861;28;20032;-57
2022/03/29 00:46:59;;;;;;;31.50;17.23;;;;;;;8.06;74.92;101569.78;5098170;28;20093;-57
2022/03/29 00:49:25;;;;;;;27.88;16.77;;;;;;;8.10;75.02;101574.84;5108870;28;20548;-57
2022/03/29 00:51:55;;;;;;;26.45;17.17;;;;;;;8.09;74.58;101563.41;5100935;28;20028;-57
2022/03/29 00:54:21;;;;;;;29.38;17.23;;;;;;;7.99;75.02;101559.88;5109706;28;20114;-57
2022/03/29 00:56:46;;;;;;;30.02;17.08;;;;;;;8.02;75.15;101551.69;5106490;28;20028;-57
2022/03/29 00:59:12;;;;;;;30.23;16.60;;;;;;;7.93;75.45;101556.78;5107543;28;20038;-57
2022/03/29 01:01:37;;;;;;;29.48;16.92;;;;;;;7.92;75.51;101563.03;5108145;28;20043;-56
2022/03/29 01:04:03;;;;;;;28.88;17.63;;;;;;;7.93;75.37;101554.13;5104566;28;20028;-57
2022/03/29 01:06:28;;;;;;;27.70;17.00;;;;;;;7.95;75.33;101551.38;5105678;28;20039;-57
2022/03/29 01:08:53;;;;;;;31.27;17.10;;;;;;;7.91;75.49;101544.66;5112829;28;20524;-57
2022/03/29 01:11:19;;;;;;;29.63;18.65;;;;;;;7.90;75.67;101545.63;5103088;28;20080;-57
2022/03/29 01:13:45;;;;;;;29.15;17.85;;;;;;;7.89;75.93;101546.59;5097381;28;20458;-57
2022/03/29 01:18:55;;;;;;;31.27;18.33;;;;;;;7.77;76.10;101532.59;5106109;28;20070;-57
2022/03/29 01:21:25;;;;;;;29.35;18.55;;;;;;;7.75;76.74;101535.34;5102754;28;20024;-57
2022/03/29 01:23:51;;;;;;;31.90;19.17;;;;;;;7.63;76.59;101537.19;5104569;28;20030;-57
2022/03/29 01:26:17;;;;;;;37.25;18.63;;;;;;;7.69;77.10;101535.03;5106976;28;20032;-57
2022/03/29 01:28:44;;;;;;;33.05;19.73;;;;;;;7.67;76.95;101536.00;5108123;28;20030;-57
2022/03/29 01:31:11;;;;;;;34.08;19.70;;;;;;;7.59;77.57;101535.75;5103868;28;20020;-57
2022/03/29 01:33:37;;;;;;;34.72;20.38;;;;;;;7.62;77.02;101535.53;5099716;28;20046;-57
2022/03/29 01:36:03;;;;;;;34.15;21.17;;;;;;;7.54;77.89;101535.28;5106689;28;20031;-57
2022/03/29 01:38:28;;;;;;;32.80;21.05;;;;;;;7.48;78.71;101527.88;5114665;28;20087;-57
2022/03/29 01:41:00;;;;;;;32.95;20.88;;;;;;;7.48;78.23;101527.88;5103009;28;20036;-57
2022/03/29 01:43:25;;;;;;;33.70;20.27;;;;;;;7.48;77.61;101526.09;5099840;28;20035;-57
2022/03/29 01:45:51;;;;;;;32.22;20.88;;;;;;;7.52;78.43;101524.03;5100052;28;20382;-57
2022/03/29 01:48:16;;;;;;;35.15;20.88;;;;;;;7.52;78.01;101518.75;5103803;28;20039;-57
2022/03/29 01:50:41;;;;;;;31.48;20.48;;;;;;;7.48;77.74;101527.88;5110016;28;20038;-57
2022/03/29 01:53:08;;;;;;;37.03;21.90;;;;;;;7.48;78.30;101523.44;5107627;28;20068;-58
2022/03/29 01:55:33;;;;;;;35.45;22.90;;;;;;;7.45;79.39;101517.59;5107366;28;20035;-57
2022/03/29 01:57:58;;;;;;;35.63;22.50;;;;;;;7.40;79.22;101516.16;5105728;28;20031;-57
2022/03/29 02:00:38;;;;;;;35.70;22.70;;;;;;;7.37;79.32;101511.13;5098603;28;20055;-57
2022/03/29 02:03:05;;;;;;;35.83;22.70;;;;;;;7.34;79.58;101498.16;5099278;28;20027;-57
2022/03/29 02:05:32;;;;;;;36.10;22.42;;;;;;;7.39;79.56;101501.28;5098417;28;20024;-58
2022/03/29 02:07:58;;;;;;;37.85;24.25;;;;;;;7.28;80.46;101488.13;5112728;28;20394;-56
2022/03/29 02:10:23;;;;;;;36.58;23.27;;;;;;;7.29;79.69;101492.41;5106065;28;20024;-58
2022/03/29 02:12:50;;;;;;;38.75;24.50;;;;;;;7.21;80.20;101484.31;5093994;28;20031;-57
2022/03/29 02:15:17;;;;;;;39.42;23.60;;;;;;;7.29;80.27;101481.88;5101345;28;20078;-56
2022/03/29 02:17:44;;;;;;;38.03;23.40;;;;;;;7.17;80.33;101467.03;5099847;28;20035;-57
2022/03/29 02:20:10;;;;;;;35.42;23.35;;;;;;;7.21;80.31;101492.22;5108185;28;20089;-57
2022/03/29 02:22:35;;;;;;;34.97;23.50;;;;;;;7.21;80.54;101484.31;5098684;28;20501;-58
2022/03/29 02:25:01;;;;;;;37.35;23.73;;;;;;;7.23;80.88;101482.38;5095578;28;20044;-57
2022/03/29 02:27:26;;;;;;;37.95;25.08;;;;;;;7.14;80.95;101478.66;5108439;28;20047;-57
2022/03/29 02:29:52;;;;;;;39.60;24.00;;;;;;;7.16;80.75;101471.50;5111870;28;20059;-57
2022/03/29 02:32:17;;;;;;;35.70;24.70;;;;;;;7.13;80.87;101467.28;5112980;28;20385;-57
2022/03/29 02:34:45;;;;;;;37.00;24.17;;;;;;;7.07;81.07;101470.44;5112257;27;20595;-57
2022/03/29 02:37:11;;;;;;;37.65;24.88;;;;;;;7.08;80.96;101463.34;5110231;28;20143;-57
2022/03/29 02:39:37;;;;;;;40.30;24.55;;;;;;;7.08;81.56;101464.19;5101709;28;20330;-57
2022/03/29 02:42:03;;;;;;;40.17;25.63;;;;;;;7.06;81.70;101454.72;5111070;28;20043;-57
2022/03/29 02:44:28;;;;;;;38.53;25.40;;;;;;;7.10;81.96;101456.97;5107887;28;20401;-58
2022/03/29 02:46:53;;;;;;;40.40;26.08;;;;;;;7.15;81.84;101453.13;5097811;28;20040;-57
2022/03/29 02:49:19;;;;;;;39.13;25.95;;;;;;;7.13;81.81;101448.84;5101337;28;20035;-57
2022/03/29 02:51:44;;;;;;;38.78;25.80;;;;;;;7.03;82.16;101445.25;5106655;28;20052;-57
2022/03/29 02:54:09;;;;;;;37.50;25.92;;;;;;;7.09;81.78;101444.75;5103129;28;20063;-57
2022/03/29 02:56:35;;;;;;;45.08;27.05;;;;;;;6.94;82.04;101441.56;5107949;28;20107;-57
2022/03/29 02:59:00;;;;;;;41.30;27.45;;;;;;;6.92;82.76;101437.34;5099902;28;20042;-57
2022/03/29 03:01:28;;;;;;;45.42;26.80;;;;;;;6.92;82.46;101430.28;5103761;28;20093;-57
2022/03/29 03:03:55;;;;;;;42.92;28.13;;;;;;;6.93;82.93;101433.75;5105079;28;20396;-57
2022/03/29 03:06:20;;;;;;;41.83;27.77;;;;;;;6.95;83.02;101424.75;5102847;28;20036;-57
2022/03/29 03:08:45;;;;;;;43.80;27.52;;;;;;;6.98;82.70;101426.31;5100495;28;20058;-57
2022/03/29 03:11:11;;;;;;;41.00;28.00;;;;;;;6.96;82.76;101425.63;5098567;28;20040;-57
2022/03/29 03:13:36;;;;;;;44.70;28.05;;;;;;;6.95;83.32;101432.66;5099017;28;20100;-57
2022/03/29 03:16:02;;;;;;;41.50;28.00;;;;;;;6.97;83.25;101419.38;5108816;28;20028;-57
2022/03/29 03:18:27;;;;;;;43.53;28.40;;;;;;;7.00;83.10;101424.38;5104013;28;20042;-57
2022/03/29 03:20:53;;;;;;;45.75;29.75;;;;;;;6.95;83.04;101416.00;5102176;28;20054;-57
2022/03/29 03:23:18;;;;;;;46.33;29.45;;;;;;;6.91;83.48;101414.59;5108654;28;20036;-57
2022/03/29 03:25:43;;;;;;;44.15;29.80;;;;;;;6.99;83.12;101417.44;5097778;28;20060;-57
2022/03/29 03:28:08;;;;;;;43.88;29.98;;;;;;;7.01;82.95;101415.53;5106663;28;20030;-57
2022/03/29 03:30:34;;;;;;;47.13;30.55;;;;;;;6.99;83.39;101417.44;5107620;28;20031;-57
2022/03/29 03:32:59;;;;;;;45.17;30.02;;;;;;;6.98;83.11;101411.34;5103530;28;20110;-57
2022/03/29 03:35:24;;;;;;;48.15;31.13;;;;;;;6.97;83.32;101414.09;5108357;28;20032;-57
2022/03/29 03:37:50;;;;;;;47.58;32.10;;;;;;;6.91;83.94;101404.03;5111971;28;20030;-57
2022/03/29 03:40:16;;;;;;;46.53;31.15;;;;;;;6.95;83.12;101405.47;5108614;28;20028;-57
2022/03/29 03:42:41;;;;;;;47.97;31.92;;;;;;;6.89;83.59;101405.94;5101517;28;20026;-57
2022/03/29 03:45:08;;;;;;;47.13;30.60;;;;;;;6.90;83.53;101405.84;5110137;28;20107;-57
2022/03/29 03:47:34;;;;;;;48.55;32.00;;;;;;;6.88;83.92;101409.56;5107801;28;20457;-57
2022/03/29 03:49:59;;;;;;;49.92;33.15;;;;;;;6.79;83.92;101408.50;5101036;28;20111;-58
2022/03/29 03:52:25;;;;;;;49.22;32.33;;;;;;;6.77;84.66;101403.38;5101274;28;20450;-58
2022/03/29 03:54:51;;;;;;;50.15;32.60;;;;;;;6.71;84.44;101403.84;5105145;28;20032;-57
2022/03/29 03:57:18;;;;;;;53.50;31.98;;;;;;;6.69;84.67;101405.75;5099796;28;20031;-58
2022/03/29 03:59:44;;;;;;;51.60;34.03;;;;;;;6.61;84.72;101402.91;5111224;28;20063;-57
2022/03/29 04:02:10;;;;;;;51.28;34.15;;;;;;;6.57;85.03;101395.22;5110726;28;20400;-57
2022/03/29 04:04:35;;;;;;;50.67;33.47;;;;;;;6.59;84.88;101393.31;5105909;28;20032;-58
2022/03/29 04:07:01;;;;;;;50.97;33.97;;;;;;;6.61;84.85;101392.34;5112361;28;20484;-57
2022/03/29 04:09:27;;;;;;;52.38;33.70;;;;;;;6.58;84.82;101383.72;5103688;28;20501;-57
2022/03/29 04:11:52;;;;;;;50.78;34.22;;;;;;;6.55;84.86;101381.34;5110409;28;20031;-57
2022/03/29 04:14:17;;;;;;;54.85;34.05;;;;;;;6.58;84.74;101378.44;5111142;28;20114;-57
2022/03/29 04:16:43;;;;;;;57.63;34.90;;;;;;;6.59;84.64;101374.88;5107078;28;20259;-57
2022/03/29 04:19:08;;;;;;;53.00;36.33;;;;;;;6.58;84.94;101374.97;5106795;28;20118;-57
2022/03/29 04:21:33;;;;;;;55.08;36.20;;;;;;;6.56;84.61;101374.28;5102023;28;20397;-57
2022/03/29 04:23:58;;;;;;;52.30;35.97;;;;;;;6.57;85.03;101368.88;5108817;28;20042;-57
2022/03/29 04:26:24;;;;;;;56.67;36.00;;;;;;;6.53;84.62;101366.59;5108770;28;20358;-57
2022/03/29 04:28:49;;;;;;;55.30;37.05;;;;;;;6.49;85.28;101360.75;5110048;28;20036;-57
2022/03/29 04:31:14;;;;;;;57.17;36.45;;;;;;;6.50;84.91;101353.69;5100217;28;20485;-57
2022/03/29 04:33:40;;;;;;;54.10;36.67;;;;;;;6.46;84.86;101350.44;5106828;28;20027;-59
2022/03/29 04:36:06;;;;;;;53.58;36.80;;;;;;;6.42;85.42;101352.47;5111926;28;20032;-57
2022/03/29 04:38:31;;;;;;;57.83;37.40;;;;;;;6.45;85.05;101346.13;5111434;28;20039;-57
2022/03/29 04:40:56;;;;;;;54.33;36.72;;;;;;;6.43;85.07;101346.25;5100534;28;20027;-57
2022/03/29 04:43:22;;;;;;;54.38;36.53;;;;;;;6.39;85.09;101343.97;5114757;28;20031;-57
2022/03/29 04:45:48;;;;;;;57.45;36.13;;;;;;;6.40;85.35;101343.88;5103297;28;20031;-57
2022/03/29 04:48:14;;;;;;;56.38;38.25;;;;;;;6.35;85.45;101346.03;5107500;28;20474;-57
2022/03/29 04:50:40;;;;;;;56.72;37.22;;;;;;;6.37;86.01;101338.81;5104669;28;20038;-58
2022/03/29 04:53:06;;;;;;;56.55;37.40;;;;;;;6.29;85.42;101333.34;5103371;28;20034;-57
2022/03/29 04:55:31;;;;;;;57.00;38.10;;;;;;;6.31;85.74;101331.41;5106050;28;20032;-57
2022/03/29 04:57:56;;;;;;;56.33;39.22;;;;;;;6.30;85.95;101330.59;5115416;28;20030;-57
2022/03/29 05:00:22;;;;;;;56.38;38.50;;;;;;;6.30;86.29;101333.22;5111038;28;20075;-56
2022/03/29 05:02:48;;;;;;;57.13;37.85;;;;;;;6.31;85.62;101345.44;5108461;28;20039;-57
2022/03/29 05:05:14;;;;;;;57.38;38.13;;;;;;;6.29;85.54;101341.25;5102498;28;20232;-57
2022/03/29 05:07:40;;;;;;;64.72;39.95;;;;;;;6.25;86.42;101335.38;5112895;28;20192;-57
2022/03/29 05:10:08;;;;;;;57.25;38.25;;;;;;;6.25;86.04;101327.47;5099736;28;20083;-57
2022/03/29 05:12:40;;;;;;;56.65;39.58;;;;;;;6.25;86.01;101318.72;5114096;28;20031;-57
2022/03/29 05:15:07;;;;;;;59.35;39.72;;;;;;;6.25;85.71;101330.09;5095642;28;20132;-57
2022/03/29 05:17:33;;;;;;;62.85;40.80;;;;;;;6.19;86.08;101330.59;5099394;28;20028;-57
2022/03/29 05:19:59;;;;;;;59.78;40.33;;;;;;;6.19;86.30;101325.31;5105502;28;20019;-57
2022/03/29 05:22:24;;;;;;;58.80;39.15;;;;;;;6.19;86.68;101330.59;5107789;28;20038;-57
2022/03/29 05:24:49;;;;;;;61.67;39.83;;;;;;;6.19;86.68;101320.06;5110230;28;20031;-57
2022/03/29 05:27:14;;;;;;;58.90;39.40;;;;;;;6.20;86.52;101327.00;5112542;28;20023;-57
2022/03/29 05:29:40;;;;;;;57.40;39.55;;;;;;;6.14;86.18;101320.44;5103163;28;20055;-57
2022/03/29 05:32:06;;;;;;;60.13;39.13;;;;;;;6.13;86.53;101326.63;5103062;28;20471;-57
2022/03/29 05:34:31;;;;;;;62.60;40.67;;;;;;;6.10;86.55;101331.31;5100148;28;20427;-57
2022/03/29 05:36:56;;;;;;;61.63;40.28;;;;;;;6.05;86.32;101334.31;5108020;28;20076;-57
2022/03/29 05:39:22;;;;;;;71.35;42.53;;;;;;;6.03;86.88;101326.50;5105380;28;20531;-57
2022/03/29 05:41:47;;;;;;;67.25;42.33;;;;;;;6.02;86.89;101327.47;5109039;28;20118;-57
2022/03/29 05:44:12;;;;;;;68.00;41.97;;;;;;;5.97;87.42;101331.41;5109727;28;20613;-57
2022/03/29 05:49:21;;;;;;;65.68;40.92;;;;;;;6.01;87.98;101327.56;5103501;28;20076;-56
2022/03/29 05:51:47;;;;;;;76.15;43.40;;;;;;;5.94;87.49;101324.59;5110285;28;20441;-57
2022/03/29 05:54:12;;;;;;;69.50;42.42;;;;;;;5.85;88.05;101333.19;5101653;28;20532;-57
2022/03/29 05:56:38;;;;;;;72.55;43.50;;;;;;;5.87;88.78;101331.28;5102352;28;20031;-57
2022/03/29 05:59:03;;;;;;;72.50;42.50;;;;;;;5.90;88.17;101336.28;5104255;28;20023;-56
2022/03/29 06:01:28;;;;;;;77.40;44.30;;;;;;;5.90;88.60;101333.66;5103938;28;20072;-58
2022/03/29 06:03:53;;;;;;;77.53;43.30;;;;;;;5.88;88.92;101333.78;5104790;28;20481;-56
2022/03/29 06:06:19;;;;;;;76.72;44.20;;;;;;;5.88;89.51;101338.22;5103184;28;20015;-57
2022/03/29 06:08:44;;;;;;;77.60;44.15;;;;;;;5.89;89.24;101332.00;5105967;28;20047;-57
2022/03/29 06:11:09;;;;;;;80.70;44.45;;;;;;;5.90;88.81;101331.03;5104931;28;20023;-57
2022/03/29 06:13:35;;;;;;;77.95;44.83;;;;;;;5.93;89.73;101336.06;5106564;28;20027;-58
2022/03/29 06:16:02;;;;;;;77.68;43.53;;;;;;;5.92;89.86;101332.59;5105066;28;20042;-58
2022/03/29 06:18:27;;;;;;;77.90;45.05;;;;;;;5.90;89.32;101336.28;5104436;28;20051;-58
2022/03/29 06:20:53;;;;;;;78.18;43.08;;;;;;;5.89;90.21;101324.09;5100006;28;20485;-57
2022/03/29 06:23:19;;;;;;;81.65;45.22;;;;;;;5.92;90.26;101323.84;5098832;28;20402;-57
2022/03/29 06:25:46;;;;;;;83.00;44.67;;;;;;;5.91;90.31;101325.66;5105219;28;20028;-57
2022/03/29 06:28:11;;;;;;;82.32;44.50;;;;;;;5.95;89.18;101333.31;5102842;28;20050;-58
2022/03/29 06:30:38;;;;;;;80.47;43.97;;;;;;;5.85;89.80;101322.66;5103715;28;20466;-57
2022/03/29 06:33:03;;;;;;;80.93;45.13;;;;;;;5.88;90.74;101328.50;5108754;28;20145;-58
2022/03/29 06:35:31;;;;;;;87.95;46.53;;;;;;;5.91;90.60;101319.53;5104181;28;20123;-57
2022/03/29 06:37:58;;;;;;;89.15;47.22;;;;;;;5.94;90.25;101316.69;5108229;28;20027;-58
2022/03/29 06:40:25;;;;;;;92.22;48.38;;;;;;;5.96;91.06;101325.28;5100379;28;20036;-57
2022/03/29 06:42:51;;;;;;;81.10;46.30;;;;;;;5.95;91.41;101334.16;5105317;28;20028;-57
2022/03/29 06:45:17;;;;;;;85.15;44.53;;;;;;;5.97;90.99;101321.69;5102832;28;20012;-57
2022/03/29 06:47:43;;;;;;;84.85;45.00;;;;;;;6.01;90.85;101327.56;5104058;28;20618;-58
2022/03/29 06:50:09;;;;;;;91.22;46.03;;;;;;;5.98;90.40;101317.28;5106256;28;20080;-57
2022/03/29 06:52:38;;;;;;;85.25;46.05;;;;;;;5.98;90.52;101322.53;5108276;28;20386;-57
2022/03/29 06:55:06;;;;;;;82.82;43.72;;;;;;;6.00;90.33;101323.25;5100312;28;20087;-57
2022/03/29 06:57:31;;;;;;;86.45;47.25;;;;;;;5.88;91.07;101317.97;5111809;28;20562;-58
2022/03/29 06:59:57;;;;;;;90.07;46.08;;;;;;;5.91;91.46;101323.03;5102411;28;20039;-58
2022/03/29 07:02:22;;;;;;;86.97;45.20;;;;;;;5.94;91.19;101316.69;5111497;28;20028;-57
2022/03/29 07:04:47;;;;;;;90.20;47.55;;;;;;;5.95;91.24;101318.34;5099084;28;20036;-58
2022/03/29 07:07:13;;;;;;;90.35;46.50;;;;;;;6.03;91.22;101313.34;5111122;28;20099;-57
2022/03/29 07:12:22;;;;;;;92.25;46.28;;;;;;;6.14;91.23;101311.69;5101952;28;20066;-57
2022/03/29 07:14:47;;;;;;;91.95;48.13;;;;;;;6.19;91.40;101312.16;5099480;28;20052;-57
2022/03/29 07:17:15;;;;;;;92.80;45.92;;;;;;;6.23;90.25;101310.13;5107866;28;20036;-57
2022/03/29 07:19:41;;;;;;;95.18;46.65;;;;;;;6.15;90.77;101310.72;5107511;28;20406;-57
2022/03/29 07:22:06;;;;;;;95.78;47.67;;;;;;;6.10;91.34;101304.97;5108279;28;20042;-57
2022/03/29 07:24:31;;;;;;;95.70;47.03;;;;;;;6.11;91.58;101319.84;5108831;28;20466;-58
2022/03/29 07:26:57;;;;;;;92.18;46.22;;;;;;;6.09;91.14;101324.38;5103951;28;20048;-57
2022/03/29 07:29:22;;;;;;;91.95;44.88;;;;;;;6.09;91.11;101324.38;5111790;28;20032;-58
2022/03/29 07:31:47;;;;;;;90.30;45.25;;;;;;;6.06;91.15;101322.81;5107760;28;20023;-57
2022/03/29 07:34:13;;;;;;;89.93;45.80;;;;;;;6.08;92.19;101323.53;5109800;28;20023;-58
2022/03/29 07:36:40;;;;;;;94.28;44.63;;;;;;;6.09;91.04;101321.72;5108605;28;20028;-58
2022/03/29 07:39:05;;;;;;;95.15;46.33;;;;;;;6.10;91.55;101321.63;5102158;28;20036;-58
2022/03/29 07:41:32;;;;;;;98.20;46.50;;;;;;;6.05;91.31;101329.88;5107745;28;20039;-58
2022/03/29 07:43:57;;;;;;;97.57;45.22;;;;;;;6.09;91.54;101329.63;5108880;28;20164;-60
2022/03/29 07:46:23;;;;;;;100.45;46.17;;;;;;;6.08;91.08;101336.72;5108377;28;20114;-57
2022/03/29 07:48:49;;;;;;;97.30;46.13;;;;;;;6.03;91.78;101347.56;5100072;28;20028;-58
2022/03/29 07:51:16;;;;;;;104.53;47.60;;;;;;;5.99;91.47;101346.13;5107085;28;20072;-58
2022/03/29 07:53:41;;;;;;;95.05;45.65;;;;;;;6.00;91.64;101346.94;5104961;28;20032;-58
2022/03/29 07:56:07;;;;;;;97.07;45.40;;;;;;;6.00;92.27;101347.81;5093413;28;20161;-57
2022/03/29 07:58:32;;;;;;;97.35;46.97;;;;;;;5.97;92.77;101342.75;5102442;28;20028;-58
2022/03/29 08:00:57;;;;;;;100.22;47.70;;;;;;;5.99;92.08;101346.13;5108738;28;20391;-58
2022/03/29 08:03:23;;;;;;;106.90;49.63;;;;;;;6.01;92.67;101349.47;5105568;28;20032;-58
2022/03/29 08:05:49;;;;;;;105.93;46.83;;;;;;;5.98;92.44;101344.47;5104784;28;20034;-57
2022/03/29 08:08:16;;;;;;;108.65;48.30;;;;;;;6.00;92.94;101342.53;5111194;28;20055;-57
2022/03/29 08:10:46;;;;;;;104.53;48.28;;;;;;;6.02;92.03;101340.63;5103211;28;20016;-57
2022/03/29 08:13:12;;;;;;;111.85;48.35;;;;;;;6.11;92.76;101338.28;5108296;28;20032;-58
2022/03/29 08:15:39;;;;;;;105.85;49.00;;;;;;;6.07;92.69;101315.75;5098556;28;20032;-58
2022/03/29 08:18:05;;;;;;;108.00;47.70;;;;;;;6.24;91.67;101333.72;5107543;28;20023;-58
2022/03/29 08:20:30;;;;;;;108.38;48.88;;;;;;;6.27;91.90;101328.19;5108293;28;20093;-58
2022/03/29 08:23:00;;;;;;;106.15;49.00;;;;;;;6.31;92.46;101334.91;5105518;28;20027;-58
2022/03/29 08:25:26;;;;;;;112.28;48.83;;;;;;;6.31;91.21;101329.63;5108978;28;20030;-58
2022/03/29 08:27:54;;;;;;;102.22;46.55;;;;;;;6.33;91.14;101327.69;5110112;28;20027;-57
2022/03/29 08:30:19;;;;;;;104.57;48.13;;;;;;;6.36;91.46;101325.81;5107696;28;20019;-57
2022/03/29 08:32:45;;;;;;;98.85;45.97;;;;;;;6.33;90.80;101326.88;5097282;28;20020;-57
2022/03/29 08:35:12;;;;;;;98.50;45.38;;;;;;;6.27;91.47;101328.19;5103086;28;20486;-57
2022/03/29 08:37:39;;;;;;;101.40;45.65;;;;;;;6.25;91.98;101324.84;5097848;28;20026;-57
2022/03/29 08:40:07;;;;;;;102.55;47.40;;;;;;;6.26;92.73;101315.97;5101938;28;20051;-57
2022/03/29 08:42:32;;;;;;;100.13;46.38;;;;;;;6.43;91.87;101321.72;5110221;28;20122;-57
2022/03/29 08:44:59;;;;;;;101.45;46.28;;;;;;;6.46;91.71;101329.34;5105894;28;20106;-57
2022/03/29 08:47:25;;;;;;;101.47;45.78;;;;;;;6.43;91.58;101326.97;5104295;28;20032;-58
2022/03/29 08:49:51;;;;;;;99.35;46.63;;;;;;;6.41;92.06;101334.19;5113254;28;20047;-58
2022/03/29 08:52:18;;;;;;;104.57;48.08;;;;;;;6.41;91.72;101335.00;5104391;28;20024;-57
2022/03/29 08:54:44;;;;;;;111.78;49.13;;;;;;;6.41;92.35;101339.44;5110480;28;20055;-57
2022/03/29 08:57:11;;;;;;;106.78;47.65;;;;;;;6.48;91.88;101330.09;5108924;27;20024;-58
2022/03/29 08:59:36;;;;;;;110.88;48.67;;;;;;;6.48;91.70;101330.09;5099019;28;20116;-57
2022/03/29 09:02:10;;;;;;;113.78;48.20;;;;;;;6.45;92.67;101338.22;5111433;28;20102;-60
2022/03/29 09:04:36;;;;;;;109.60;48.60;;;;;;;6.49;91.17;101334.41;5111059;28;20028;-58
2022/03/29 09:07:02;;;;;;;117.70;49.65;;;;;;;6.47;92.43;101328.41;5108341;28;20027;-57
2022/03/29 09:09:34;;;;;;;111.65;49.17;;;;;;;6.44;91.94;101324.22;5103047;28;20051;-58
2022/03/29 09:12:12;;;;;;;109.70;49.28;;;;;;;6.49;91.84;101321.22;5107506;28;20040;-58
2022/03/29 09:14:59;;;;;;;108.40;47.60;;;;;;;6.56;91.71;101319.75;5103602;28;20024;-58
2022/03/29 09:17:38;;;;;;;123.60;49.15;;;;;;;6.61;91.06;101308.03;5108154;28;20036;-58
2022/03/29 09:20:12;;;;;;;118.38;48.88;;;;;;;6.69;91.37;101316.13;5110322;28;20035;-58
2022/03/29 09:22:41;;;;;;;124.05;49.65;;;;;;;6.67;91.35;101318.06;5112728;28;20115;-57
2022/03/29 09:25:07;;;;;;;119.72;50.13;;;;;;;6.75;91.12;101314.81;5104553;28;20360;-57
2022/03/29 09:27:55;;;;;;;117.47;50.70;;;;;;;6.70;90.92;101321.28;5103351;28;20026;-58
2022/03/29 09:30:22;;;;;;;119.82;48.85;;;;;;;6.65;90.65;101325.28;5101981;28;20028;-56
2022/03/29 09:33:07;;;;;;;117.15;49.78;;;;;;;6.61;91.49;101313.28;5106132;28;20484;-58
2022/03/29 09:35:51;;;;;;;113.85;48.72;;;;;;;6.69;91.26;101321.41;5111280;28;20118;-58
2022/03/29 09:38:44;;;;;;;126.25;50.67;;;;;;;6.68;90.46;101309.19;5106207;28;20040;-58
2022/03/29 09:41:20;;;;;;;132.33;51.67;;;;;;;6.77;91.12;101312.88;5105330;28;20054;-58
2022/03/29 09:44:03;;;;;;;138.18;52.05;;;;;;;6.83;90.66;101305.31;5111769;28;20294;-58
2022/03/29 09:46:29;;;;;;;134.88;54.20;;;;;;;6.89;90.78;101300.50;5105298;28;20079;-58
2022/03/29 09:49:00;;;;;;;131.63;51.65;;;;;;;6.91;90.33;101288.03;5111388;28;20115;-58
2022/03/29 09:51:27;;;;;;;132.00;52.33;;;;;;;6.93;89.63;101296.66;5104811;28;20423;-57
2022/03/29 09:53:55;;;;;;;134.57;52.25;;;;;;;6.91;90.58;101293.31;5108679;28;20529;-57
2022/03/29 09:56:28;;;;;;;131.43;52.33;;;;;;;6.82;90.14;101294.91;5106544;28;20039;-59
2022/03/29 09:59:11;;;;;;;140.88;54.08;;;;;;;6.86;90.02;101294.50;5107092;28;20114;-59
2022/03/29 10:01:57;;;;;;;113.45;49.17;;;;;;;6.90;89.62;101275.81;5105737;28;20032;-59
2022/03/29 10:04:25;;;;;;;119.30;50.05;;;;;;;6.86;90.42;101270.78;5108717;28;20509;-59
2022/03/29 10:06:54;;;;;;;114.05;49.53;;;;;;;6.94;90.83;101277.22;5101521;28;21006;-57
2022/03/29 10:09:26;;;;;;;113.00;47.40;;;;;;;6.95;90.42;101270.97;5111288;28;20450;-56
2022/03/29 10:12:04;;;;;;;115.70;49.95;;;;;;;7.07;90.13;101269.13;5105857;28;20028;-58
2022/03/29 10:14:31;;;;;;;110.93;50.42;;;;;;;7.10;89.99;101267.09;5109060;28;20096;-59
2022/03/29 10:16:57;;;;;;;101.38;47.05;;;;;;;7.23;89.47;101266.06;5101499;28;20051;-57
2022/03/29 10:19:23;;;;;;;87.53;45.10;;;;;;;7.21;89.36;101260.09;5110289;28;20111;-58
2022/03/29 10:21:50;;;;;;;84.80;44.50;;;;;;;7.22;88.82;101253.84;5104420;28;20106;-59
2022/03/29 10:24:18;;;;;;;83.45;44.53;;;;;;;7.16;89.42;101249.06;5099739;28;20470;-58
2022/03/29 10:26:45;;;;;;;82.90;43.85;;;;;;;7.25;89.21;101259.69;5107369;28;20039;-57
2022/03/29 10:29:11;;;;;;;82.85;44.53;;;;;;;7.25;88.87;101253.56;5097131;27;20113;-59
2022/03/29 10:31:39;;;;;;;80.80;43.70;;;;;;;7.26;89.88;101265.81;5104061;28;20073;-58
2022/03/29 10:34:27;;;;;;;80.22;42.42;;;;;;;7.29;89.65;101265.53;5095161;28;20032;-58
2022/03/29 10:37:01;;;;;;;80.00;43.67;;;;;;;7.31;89.28;101262.78;5101609;28;20016;-58
2022/03/29 10:39:39;;;;;;;75.75;41.00;;;;;;;7.34;88.56;101263.34;5104777;28;20087;-58
2022/03/29 10:42:37;;;;;;;77.85;42.85;;;;;;;7.38;88.61;101254.22;5109736;28;20462;-58
2022/03/29 10:45:10;;;;;;;78.57;42.67;;;;;;;7.59;88.56;101255.16;5110872;28;20505;-58
2022/03/29 10:47:36;;;;;;;73.10;41.58;;;;;;;7.71;87.90;101247.97;5105180;28;20032;-59
2022/03/29 10:50:04;;;;;;;73.45;42.55;;;;;;;7.78;87.26;101249.13;5101362;28;20020;-57
2022/03/29 10:52:36;;;;;;;71.85;40.47;;;;;;;7.74;87.06;101248.53;5097872;28;20020;-58
2022/03/29 10:55:25;;;;;;;70.63;41.08;;;;;;;7.82;87.28;101234.69;5107771;28;20428;-58
2022/03/29 10:58:25;;;;;;;67.28;39.58;;;;;;;7.88;86.96;101241.22;5102388;28;20139;-58
2022/03/29 11:00:51;;;;;;;66.38;39.83;;;;;;;7.79;87.35;101242.84;5022817;28;20041;-58
2022/03/29 11:03:21;;;;;;;68.63;40.35;;;;;;;7.69;86.84;101232.25;5075804;28;20051;-57
2022/03/29 11:06:08;;;;;;;67.18;39.22;;;;;;;7.96;86.82;101230.84;5105767;28;20106;-58
2022/03/29 11:08:42;;;;;;;66.57;38.83;;;;;;;7.91;86.54;101223.31;5109455;28;20047;-57
2022/03/29 11:11:28;;;;;;;64.45;38.35;;;;;;;7.81;86.61;101223.28;5102163;28;20032;-58
2022/03/29 11:13:53;;;;;;;65.20;38.85;;;;;;;7.94;87.24;101220.41;5101162;28;20028;-58
2022/03/29 11:16:25;;;;;;;70.18;39.63;;;;;;;8.07;86.96;101219.31;5099058;28;20024;-58
2022/03/29 11:18:51;;;;;;;68.82;40.80;;;;;;;8.18;86.86;101208.66;5101414;28;20064;-58
2022/03/29 11:21:35;;;;;;;72.03;41.03;;;;;;;8.30;86.17;101216.44;5101022;28;20111;-59
2022/03/29 11:24:02;;;;;;;67.93;39.78;;;;;;;8.41;85.72;101213.69;5103930;28;20032;-57
2022/03/29 11:26:28;;;;;;;65.15;38.28;;;;;;;8.64;85.31;101208.16;5101492;28;20046;-58